Tiempo atmosférico en la estación meteorológica de Barcena de Cicero, Treto, Cantabria (10 m.)



Fecha
DESCASC
Temp. máxima en grados centígrados (hora)
DESCASC
Temp. mínima en grados centígrados (hora)
DESCASC
Temp. media en grados centígrados
DESCASC
Racha de viento máxima en m/sg (hora)
DESCASC
Velocidad máxima media en intervalos de 10 minutos(hora)
DESCASC
Precipitaciones diarias en mm
DESCASC
Precipitaciones de 00:00 a 06:00 en mm
DESCASC
Precipitaciones de 06:00 a 12:00 en mm
DESCASC
Precipitaciones de 12:00 a 18:00 en mm
DESCASC
Precipitaciones de 18:00 a 24:00 en mm
DESCASC
06-07-2020 19.4 (01:40) 16.7 (23:59) 18.1 5.56 (11:00) 2.78 (15:40) 4.6 1.2 3.4 0 0
05-07-2020 23.6 (15:50) 13.8 (06:20) 18.7 5.56 (14:10) 3.61 (13:10) 0 0 0 0 0
04-07-2020 22.5 (19:00) 11.4 (07:00) 16.9 5.56 (08:00) 3.61 (14:10) 0 0 0 0 0
03-07-2020 21.4 (14:50) 13.9 (07:00) 17.6 6.67 (18:30) 4.44 (17:30) 0 0 0 0 0
02-07-2020 18.5 (17:00) 15.5 (00:00) 17 6.94 (13:50) 3.06 (13:50) 0.8 0 0.4 0.2 0.2
01-07-2020 22.9 (12:50) 15.9 (00:00) 19.4 5.83 (17:50) 3.33 (14:40) 3.2 0 0 1 2.2
30-06-2020 23 (18:00) 14.2 (00:00) 18.6 6.67 (18:10) 4.44 (18:30) 0 0 0 0 0
29-06-2020 21.2 (17:50) 16.3 (00:00) 18.8 6.11 (01:00) 3.33 (19:30) 0.8 0 0.8 0 0
28-06-2020 24.8 (17:20) 17.6 (00:00) 21.2 7.78 (17:00) 4.17 (13:30) 0 0 0 0 0
27-06-2020 24.8 (18:20) 14.1 (00:00) 19.4 6.11 (19:40) 3.89 (19:40) 0 0 0 0 0
26-06-2020 19 (20:10) 16 (00:00) 17.5 4.72 (00:20) 2.5 (20:50) 0.2 0 0 0.2 0
25-06-2020 21.5 (11:30) 17.9 (00:00) 19.7 7.22 (09:10) 4.44 (13:00) 0.8 0 0 0.8 0
24-06-2020 25.8 (14:30) 16.6 (00:00) 21.2 8.89 (19:40) 4.17 (10:50) 0 0 0 0 0
23-06-2020 23.2 (19:10) 13.6 (00:00) 18.4 9.44 (16:30) 6.39 (17:30) 0 0 0 0 0
22-06-2020 22.2 (14:20) 15.8 (00:00) 19 11.67 (16:40) 8.06 (16:50) 0 0 0 0 0
21-06-2020 23.2 (13:00) 12.5 (00:00) 17.9 6.39 (12:50) 3.89 (12:50) 0 0 0 0 0
20-06-2020 21.7 (17:40) 11.7 (00:00) 16.7 8.61 (13:50) 5.56 (13:50) 0 0 0 0 0
19-06-2020 20.3 (15:30) 12.4 (00:00) 16.3 6.39 (16:50) 3.89 (13:50) 0 0 0 0 0
18-06-2020 19.7 (16:50) 13.4 (00:00) 16.6 6.11 (16:00) 3.06 (16:00) 3.4 3.4 0 0 0
17-06-2020 20.1 (16:20) 14.1 (00:00) 17.1 8.89 (13:50) 5.28 (14:30) 1.4 1.2 0.2 0 0
16-06-2020 18.1 (18:40) 14.3 (00:00) 16.2 8.06 (16:10) 3.61 (11:50) 1.2 0 0.2 1 0
15-06-2020 21.5 (15:50) 14.6 (00:00) 18.1 6.11 (16:10) 3.89 (16:30) 3.6 0 0.8 0 2.8
14-06-2020 21.2 (14:00) 12.8 (00:00) 17 6.11 (13:40) 3.33 (18:30) 0 0 0 0 0
13-06-2020 20.5 (14:00) 11.8 (00:00) 16.2 6.67 (03:00) 3.89 (14:20) 0.8 0.2 0 0.4 0.2
12-06-2020 19.3 (15:00) 8.9 (00:00) 14.1 11.67 (12:40) 5.83 (16:10) 2.4 0 0.2 2.2 0
11-06-2020 19.1 (11:30) 11.2 (00:00) 15.2 12.78 (11:40) 5 (11:50) 13.4 0 1.2 5 7.2
10-06-2020 -- (--) -- (--) -- 5.28 (08:10) 3.33 (08:30) 0.4 0 0 0 0.4

Gráficas

Temp. máximas Temp. mínimas Temp. medias Precipitaciones Rachas de viento máximas Velocidades máximas media en intervalos de 10 minutos

Datos horarios

Fecha y hora oficial Temperatura (ºC) Velocidad del viento (km/h) Dirección del viento Racha (km/h) Dirección de racha Precipitación (mm) Presión (hPa) Tendencia (hPa) Humedad (%)
2020-07-09 23:00:00 20.3 4 Noroeste 10 Noroeste 0 -- -- 85
2020-07-09 22:00:00 20.5 6 Noroeste 19 Norte 0 -- -- 84
2020-07-09 21:00:00 21.1 10 Noroeste 17 Norte 0 -- -- 82
2020-07-09 20:00:00 21.9 8 Noroeste 18 Noroeste 0 -- -- 79
2020-07-09 19:00:00 22.4 9 Noroeste 24 Norte 0 -- -- 76
2020-07-09 18:00:00 25.1 9 Noroeste 21 Oeste 0 -- -- 68
2020-07-09 17:00:00 24.8 12 Noroeste 21 Noroeste 0 -- -- 70
2020-07-09 16:00:00 24.5 13 Noroeste 28 Noroeste 0 -- -- 72
2020-07-09 15:00:00 24.5 13 Noroeste 26 Norte 0 -- -- 73
2020-07-09 14:00:00 24.6 11 Norte 22 Norte 0 -- -- 76
2020-07-09 13:00:00 24.4 11 Norte 23 Noroeste 0 -- -- 74
2020-07-09 12:00:00 23.7 12 Noroeste 24 Noroeste 0 -- -- 72
2020-07-09 11:00:00 22.9 9 Noroeste 21 Oeste 0 -- -- 75
2020-07-09 10:00:00 22 5 Norte 15 Sudoeste 0 -- -- 80
2020-07-09 09:00:00 18.9 7 Sudeste 15 Sudeste 0 -- -- 90
2020-07-09 08:00:00 17 8 Sur 15 Sudeste 0 -- -- 95
2020-07-09 07:00:00 16.6 6 Sudeste 12 Sudeste 0 -- -- 97
2020-07-09 06:00:00 16.8 2 Sur 10 Sur 0 -- -- 95
2020-07-09 05:00:00 17.3 3 Sur 9 Sur 0 -- -- 95
2020-07-09 04:00:00 17.2 6 Sur 12 Sur 0 -- -- 95
2020-07-09 03:00:00 17.3 6 Sur 12 Sur 0 -- -- 94
2020-07-09 02:00:00 17.8 6 Sur 10 Sur 0 -- -- 93
2020-07-09 01:00:00 18.7 3 Sur 13 Sur 0 -- -- 90
2020-07-09 00:00:00 19 2 Sur 14 Sur 0 -- -- 90
2020-07-08 23:00:00 19.7 5 Sur 13 Sur 0 -- -- 87
2020-07-08 22:00:00 21.1 2 Oeste 18 Nordeste 0 -- -- 80
2020-07-08 21:00:00 22.4 11 Nordeste 17 Nordeste 0 -- -- 74
2020-07-08 20:00:00 23.4 6 Norte 19 Nordeste 0 -- -- 70
2020-07-08 19:00:00 23.2 13 Nordeste 25 Nordeste 0 -- -- 74
2020-07-08 18:00:00 23.5 14 Nordeste 31 Nordeste 0 -- -- 69
2020-07-08 17:00:00 23.2 17 Nordeste 37 Nordeste 0 -- -- 75
2020-07-08 16:00:00 23.2 20 Nordeste 37 Nordeste 0 -- -- 76
2020-07-08 15:00:00 23.2 20 Nordeste 33 Nordeste 0 -- -- 78
2020-07-08 14:00:00 23 18 Nordeste 30 Nordeste 0 -- -- 79
2020-07-08 13:00:00 22.5 17 Nordeste 32 Nordeste 0 -- -- 79
2020-07-08 12:00:00 22.6 13 Nordeste 25 Nordeste 0 -- -- 77
2020-07-08 11:00:00 21.6 14 Nordeste 22 Nordeste 0 -- -- 79
2020-07-08 10:00:00 20.3 4 Nordeste 10 Sudeste 0 -- -- 82
2020-07-08 09:00:00 17.1 6 Sudeste 15 Sudeste 0 -- -- 90
2020-07-08 08:00:00 15.1 6 Sudeste 14 Sudeste 0 -- -- 96
2020-07-08 07:00:00 14.5 8 Sur 17 Sudeste 0 -- -- 97
2020-07-08 06:00:00 14.5 10 Sur 15 Sur 0 -- -- 96
2020-07-08 05:00:00 14.8 5 Sur 12 Sur 0 -- -- 94
2020-07-08 04:00:00 15.3 7 Sur 11 Sur 0 -- -- 94
2020-07-08 03:00:00 15.8 7 Sur 13 Sur 0 -- -- 92
2020-07-08 02:00:00 16.2 2 Sudeste 6 Sudeste 0 -- -- 90
2020-07-08 01:00:00 17 3 Sur 7 Este 0 -- -- 87
2020-07-08 00:00:00 17.8 2 Sur 9 Sudeste 0 -- -- 84
2020-07-07 23:00:00 19.2 3 Sur 12 Este 0 -- -- 76
2020-07-07 22:00:00 19.8 7 Este 23 Nordeste 0 -- -- 74
2020-07-07 21:00:00 21.2 11 Este 29 Nordeste 0 -- -- 71
2020-07-07 20:00:00 21.2 22 Nordeste 31 Nordeste 0 -- -- 72
2020-07-07 19:00:00 21.6 19 Nordeste 32 Nordeste 0 -- -- 74
2020-07-07 18:00:00 21.7 20 Nordeste 35 Nordeste 0 -- -- 73
2020-07-07 17:00:00 21.6 23 Nordeste 35 Nordeste 0 -- -- 73
2020-07-07 16:00:00 21.4 22 Nordeste 38 Nordeste 0 -- -- 73
2020-07-07 15:00:00 21.1 23 Nordeste 40 Nordeste 0 -- -- 73
2020-07-07 14:00:00 20.9 23 Nordeste 35 Nordeste 0 -- -- 70
2020-07-07 13:00:00 20.9 19 Nordeste 29 Nordeste 0 -- -- 68
2020-07-07 12:00:00 20.4 10 Nordeste 19 Nordeste 0 -- -- 69
2020-07-07 11:00:00 20.7 6 Este 21 Nordeste 0 -- -- 67
2020-07-07 10:00:00 18.8 8 Sudeste 14 Sur 0 -- -- 72
2020-07-07 09:00:00 16.3 8 Sur 14 Sur 0 -- -- 85
2020-07-07 08:00:00 15.4 6 Sur 13 Sur 0 -- -- 89
2020-07-07 07:00:00 14.6 7 Sur 13 Sur 0 -- -- 94
2020-07-07 06:00:00 14.6 6 Sur 12 Sudeste 0 -- -- 95
2020-07-07 05:00:00 14.8 6 Sur 9 Sur 0 -- -- 94
2020-07-07 04:00:00 14.8 7 Sur 11 Sur 0 -- -- 95
2020-07-07 03:00:00 14.9 3 Sur 9 Sudeste 0 -- -- 96
2020-07-07 02:00:00 15.5 5 Sur 8 Sur 0 -- -- 94
2020-07-07 01:00:00 16.3 2 Sur 5 Sur 0 -- -- 90
2020-07-07 00:00:00 16.7 0 Calma 4 Sudeste 0 -- -- 89
2020-07-06 23:00:00 17.7 2 Sudeste 7 Nordeste 0 -- -- 82
2020-07-06 22:00:00 18.2 2 Sur 13 Nordeste 0 -- -- 79
2020-07-06 21:00:00 18.6 9 Nordeste 15 Nordeste 0 -- -- 75
2020-07-06 20:00:00 18.7 7 Nordeste 14 Este 0 -- -- 77
2020-07-06 19:00:00 18.9 5 Este 17 Nordeste 0 -- -- 80
2020-07-06 18:00:00 18.9 10 Nordeste 19 Nordeste 0 -- -- 79
2020-07-06 17:00:00 19.1 8 Nordeste 17 Norte 0 -- -- 79
2020-07-06 16:00:00 19 7 Nordeste 18 Nordeste 0 -- -- 79
2020-07-06 15:00:00 19 7 Nordeste 18 Nordeste 0 -- -- 81
2020-07-06 14:00:00 19 8 Norte 19 Nordeste 0 -- -- 82
2020-07-06 13:00:00 19.2 8 Norte 16 Nordeste 0 -- -- 83
2020-07-06 12:00:00 18.9 6 Norte 19 Nordeste 0 -- -- 89
2020-07-06 11:00:00 18.7 9 Norte 20 Nordeste 0 -- -- 93
2020-07-06 10:00:00 18.3 8 Norte 18 Norte 1.6 -- -- 98
2020-07-06 09:00:00 18.5 4 Noroeste 10 Norte 0.8 -- -- 99
2020-07-06 08:00:00 18.2 3 Oeste 8 Noroeste 0.4 -- -- 99
2020-07-06 07:00:00 18.1 4 Noroeste 10 Norte 0.6 -- -- 98
2020-07-06 06:00:00 18.2 4 Noroeste 17 Noroeste 1.2 -- -- 97
2020-07-06 05:00:00 18.8 4 Noroeste 7 Noroeste 0 -- -- 93
2020-07-06 04:00:00 19.2 3 Noroeste 5 Oeste 0 -- -- 90
2020-07-06 03:00:00 19.3 2 Noroeste 6 Noroeste 0 -- -- 90
2020-07-06 02:00:00 19.4 2 Oeste 6 Oeste 0 -- -- 88
2020-07-06 01:00:00 19.3 4 Oeste 9 Sudoeste 0 -- -- 88
2020-07-06 00:00:00 18.9 3 Sudoeste 6 Oeste 0 -- -- 89
2020-07-05 23:00:00 19.7 3 Noroeste 12 Noroeste 0 -- -- 86
2020-07-05 22:00:00 20.5 4 Norte 9 Norte 0 -- -- 84
2020-07-05 21:00:00 20.8 5 Norte 14 Norte 0 -- -- 82
2020-07-05 20:00:00 22 7 Norte 19 Norte 0 -- -- 76
2020-07-05 19:00:00 22.5 9 Norte 19 Norte 0 -- -- 74
2020-07-05 18:00:00 23.1 9 Norte 18 Norte 0 -- -- 73
2020-07-05 17:00:00 23.3 9 Norte 18 Norte 0 -- -- 70
2020-07-05 16:00:00 23.5 9 Nordeste 17 Nordeste 0 -- -- 69
2020-07-05 15:00:00 23.3 10 Nordeste 20 Nordeste 0 -- -- 59
2020-07-05 14:00:00 23.1 10 Nordeste 18 Nordeste 0 -- -- 69
2020-07-05 13:00:00 22.7 11 Nordeste 19 Nordeste 0 -- -- 69
2020-07-05 12:00:00 22.8 9 Nordeste 16 Nordeste 0 -- -- 64
2020-07-05 11:00:00 22.8 6 Norte 11 Nordeste 0 -- -- 62
2020-07-05 10:00:00 20.3 3 Sudeste 14 Sudeste 0 -- -- 76
2020-07-05 09:00:00 17.5 9 Sudeste 13 Sudeste 0 -- -- 86
2020-07-05 08:00:00 14.9 6 Sur 10 Sur 0 -- -- 94
2020-07-05 07:00:00 13.8 3 Sur 11 Sur 0 -- -- 96
2020-07-05 06:00:00 13.9 4 Sur 10 Sur 0 -- -- 96
2020-07-05 05:00:00 14.1 4 Sur 10 Sur 0 -- -- 96
2020-07-05 04:00:00 14.7 6 Sur 14 Sudeste 0 -- -- 95
2020-07-05 03:00:00 14.6 6 Sudeste 11 Sur 0 -- -- 95
2020-07-05 02:00:00 15.1 5 Sur 11 Sur 0 -- -- 94
2020-07-05 01:00:00 15.8 7 Sur 12 Sudeste 0 -- -- 93
2020-07-05 00:00:00 16.5 3 Sur 8 Sur 0 -- -- 90
2020-07-04 23:00:00 17.3 0 Calma 3 Noroeste 0 -- -- 88
2020-07-04 22:00:00 19.6 2 Oeste 12 Norte 0 -- -- 77
2020-07-04 21:00:00 21.1 6 Nordeste 13 Norte 0 -- -- 69
2020-07-04 20:00:00 22.1 8 Nordeste 15 Nordeste 0 -- -- 66
2020-07-04 19:00:00 22.5 7 Nordeste 16 Nordeste 0 -- -- 63
2020-07-04 18:00:00 22.3 10 Nordeste 17 Nordeste 0 -- -- 63
2020-07-04 17:00:00 22.2 11 Nordeste 19 Nordeste 0 -- -- 63
2020-07-04 16:00:00 22.3 12 Nordeste 19 Nordeste 0 -- -- 63
2020-07-04 15:00:00 22 10 Nordeste 19 Nordeste 0 -- -- 66
2020-07-04 14:00:00 21.9 10 Nordeste 17 Norte 0 -- -- 68
2020-07-04 13:00:00 21.1 12 Nordeste 20 Nordeste 0 -- -- 68
2020-07-04 12:00:00 21.4 11 Nordeste 16 Nordeste 0 -- -- 68
2020-07-04 11:00:00 20.6 3 Sudeste 15 Sudeste 0 -- -- 68
2020-07-04 10:00:00 17.6 10 Sudeste 17 Sudeste 0 -- -- 80
2020-07-04 09:00:00 15.1 11 Sudeste 20 Sudeste 0 -- -- 88
2020-07-04 08:00:00 12.7 9 Sudeste 20 Sudeste 0 -- -- 97
2020-07-04 07:00:00 11.4 7 Sur 15 Sudeste 0 -- -- 97
2020-07-04 06:00:00 11.9 9 Sur 18 Sur 0 -- -- 97
2020-07-04 05:00:00 11.9 7 Sur 12 Sur 0 -- -- 98
2020-07-04 04:00:00 12 7 Sur 14 Sudeste 0 -- -- 97
2020-07-04 03:00:00 12.6 7 Sur 13 Sudeste 0 -- -- 97
2020-07-04 02:00:00 13 7 Sur 12 Sur 0 -- -- 96
2020-07-04 01:00:00 13.4 5 Sur 10 Sur 0 -- -- 94
2020-07-04 00:00:00 14.3 6 Sur 10 Sudeste 0 -- -- 92
2020-07-03 23:00:00 15.4 0 Calma 4 Nordeste 0 -- -- 88
2020-07-03 22:00:00 18.3 4 Nordeste 14 Norte 0 -- -- 74
2020-07-03 21:00:00 19.7 8 Nordeste 19 Nordeste 0 -- -- 70
2020-07-03 20:00:00 20.2 10 Nordeste 21 Nordeste 0 -- -- 68
2020-07-03 19:00:00 20.4 12 Nordeste 24 Nordeste 0 -- -- 69
2020-07-03 18:00:00 20.5 15 Nordeste 24 Nordeste 0 -- -- 70
2020-07-03 17:00:00 20.7 14 Nordeste 20 Nordeste 0 -- -- 65
2020-07-03 16:00:00 20.5 12 Nordeste 18 Nordeste 0 -- -- 67
2020-07-03 15:00:00 21 9 Norte 21 Norte 0 -- -- 64
2020-07-03 14:00:00 20.9 13 Norte 22 Norte 0 -- -- 60
2020-07-03 13:00:00 21 7 Norte 19 Noroeste 0 -- -- 63
2020-07-03 12:00:00 20.4 8 Noroeste 21 Noroeste 0 -- -- 66
2020-07-03 11:00:00 19.3 9 Noroeste 16 Noroeste 0 -- -- 71
2020-07-03 10:00:00 18.6 8 Noroeste 13 Sudeste 0 -- -- 77
2020-07-03 09:00:00 16.6 7 Sudeste 14 Sudeste 0 -- -- 91
2020-07-03 08:00:00 14.7 4 Sur 11 Sudeste 0 -- -- 97
2020-07-03 07:00:00 13.9 5 Sur 8 Sudeste 0 -- -- 96
2020-07-03 06:00:00 14.5 3 Sur 8 Sudeste 0 -- -- 95
2020-07-03 05:00:00 15.2 4 Sur 9 Sudeste 0 -- -- 93
2020-07-03 04:00:00 15.4 4 Sudeste 9 Sudeste 0 -- -- 91
2020-07-03 03:00:00 15.6 3 Sur 10 Sur 0 -- -- 89
2020-07-03 02:00:00 15.7 2 Sur 9 Sur 0 -- -- 90
2020-07-03 01:00:00 15.7 4 Sudeste 9 Sudeste 0 -- -- 91
2020-07-03 00:00:00 15.9 7 Sur 12 Sudoeste 0 -- -- 90
2020-07-02 23:00:00 15.7 5 Sudeste 11 Sudoeste 0 -- -- 91
2020-07-02 22:00:00 15.8 6 Sudoeste 22 Oeste 0 -- -- 90
2020-07-02 21:00:00 16.2 7 Sudeste 15 Sudoeste 0 -- -- 90
2020-07-02 20:00:00 16.1 4 Sudoeste 21 Oeste 0 -- -- 91
2020-07-02 19:00:00 16.9 9 Oeste 18 Oeste 0.2 -- -- 87
2020-07-02 18:00:00 18.2 7 Oeste 14 Oeste 0 -- -- 81
2020-07-02 17:00:00 18.5 8 Oeste 15 Oeste 0 -- -- 78
2020-07-02 16:00:00 18.1 5 Sudoeste 13 Oeste 0 -- -- 83
2020-07-02 15:00:00 17 5 Sudoeste 18 Noroeste 0.2 -- -- 92
2020-07-02 14:00:00 15.8 11 Noroeste 25 Noroeste 0 -- -- 92
2020-07-02 13:00:00 17.4 6 Sur 13 Sur 0 -- -- 87
2020-07-02 12:00:00 16.8 5 Sur 13 Sudoeste 0 -- -- 92
2020-07-02 11:00:00 16.1 5 Oeste 12 Oeste 0.2 -- -- 96
2020-07-02 10:00:00 16.5 6 Oeste 11 Oeste 0.2 -- -- 93
2020-07-02 09:00:00 16.3 3 Sur 11 Sudoeste 0 -- -- 96
2020-07-02 08:00:00 15.7 4 Sur 14 Oeste 0 -- -- 97
2020-07-02 07:00:00 15.8 5 Noroeste 13 Sudoeste 0 -- -- 95
2020-07-02 06:00:00 16.1 6 Sur 12 Sur 0 -- -- 96
2020-07-02 05:00:00 16 7 Sudeste 11 Sudeste 0 -- -- 96
2020-07-02 04:00:00 16.1 3 Sudoeste 13 Sudoeste 0 -- -- 95
2020-07-02 03:00:00 16.3 2 Sur 6 Sudeste 0 -- -- 96
2020-07-02 02:00:00 16.4 3 Sur 9 Sudoeste 0 -- -- 96
2020-07-02 01:00:00 16.5 5 Sudoeste 10 Sudoeste 0 -- -- 97
2020-07-02 00:00:00 16.8 0 Calma 12 Oeste 0 -- -- 98
2020-07-01 23:00:00 16.8 4 Oeste 9 Noroeste 0.2 -- -- 98
2020-07-01 22:00:00 17.1 4 Oeste 11 Noroeste 0.4 -- -- 97
2020-07-01 21:00:00 17.6 0 Calma 13 Noroeste 0.4 -- -- 97
2020-07-01 20:00:00 18 8 Noroeste 18 Norte 0.2 -- -- 96
2020-07-01 19:00:00 18.8 10 Noroeste 16 Noroeste 1 -- -- 96
2020-07-01 18:00:00 19.1 8 Noroeste 21 Noroeste 1 -- -- 95
2020-07-01 17:00:00 20.1 6 Noroeste 13 Noroeste 0 -- -- 91
2020-07-01 16:00:00 20.6 6 Norte 20 Noroeste 0 -- -- 87
2020-07-01 15:00:00 21.2 12 Noroeste 20 Noroeste 0 -- -- 84
2020-07-01 14:00:00 22.8 9 Noroeste 17 Noroeste 0 -- -- 73
2020-07-01 13:00:00 22.9 8 Oeste 14 Oeste 0 -- -- 69
2020-07-01 12:00:00 22.1 4 Noroeste 9 Noroeste 0 -- -- 68
2020-07-01 11:00:00 20.5 3 Oeste 6 Oeste 0 -- -- 81
2020-07-01 10:00:00 18.9 0 Calma 12 Sur 0 -- -- 90
2020-07-01 09:00:00 17.5 9 Sudeste 16 Sudeste 0 -- -- 93
2020-07-01 08:00:00 16.9 4 Sudeste 10 Sudeste 0 -- -- 97
2020-07-01 07:00:00 15.9 4 Sudeste 8 Sudeste 0 -- -- 98
2020-07-01 06:00:00 16 5 Sur 9 Sudeste 0 -- -- 98
2020-07-01 05:00:00 16.2 6 Sudeste 14 Sudeste 0 -- -- 96
2020-07-01 04:00:00 16.4 5 Sudeste 10 Sudeste 0 -- -- 97
2020-07-01 03:00:00 16.5 5 Sur 7 Sur 0 -- -- 96
2020-07-01 02:00:00 16.9 3 Sur 12 Sudeste 0 -- -- 95
2020-07-01 01:00:00 17.5 6 Sudeste 11 Sur 0 -- -- 94
2020-07-01 00:00:00 17.7 2 Oeste 4 Oeste 0 -- -- 94
2020-06-30 23:00:00 18.6 2 Oeste 6 Norte 0 -- -- 90
2020-06-30 22:00:00 19.9 4 Norte 9 Norte 0 -- -- 86
2020-06-30 21:00:00 20.8 4 Nordeste 13 Nordeste 0 -- -- 82
2020-06-30 20:00:00 22 6 Nordeste 18 Nordeste 0 -- -- 75
2020-06-30 19:00:00 22.4 10 Nordeste 24 Nordeste 0 -- -- 76
2020-06-30 18:00:00 23 11 Nordeste 22 Norte 0 -- -- 76
2020-06-30 17:00:00 22.6 15 Nordeste 22 Nordeste 0 -- -- 74
2020-06-30 16:00:00 22.8 13 Nordeste 22 Nordeste 0 -- -- 72
2020-06-30 15:00:00 22.5 14 Nordeste 23 Nordeste 0 -- -- 73
2020-06-30 14:00:00 22.4 13 Nordeste 21 Nordeste 0 -- -- 75
2020-06-30 13:00:00 22.3 12 Nordeste 20 Nordeste 0 -- -- 75
2020-06-30 12:00:00 22 10 Nordeste 17 Nordeste 0 -- -- 76
2020-06-30 11:00:00 21.7 6 Nordeste 11 Nordeste 0 -- -- 75
2020-06-30 10:00:00 19.7 6 Sudeste 14 Sudeste 0 -- -- 81
2020-06-30 09:00:00 17.6 9 Sudeste 17 Sudeste 0 -- -- 87
2020-06-30 08:00:00 15.5 8 Sur 16 Sur 0 -- -- 96
2020-06-30 07:00:00 14.3 7 Sur 12 Sur 0 -- -- 98
2020-06-30 06:00:00 14.5 7 Sur 14 Sudeste 0 -- -- 98
2020-06-30 05:00:00 14.7 5 Sur 14 Sur 0 -- -- 99
2020-06-30 04:00:00 14.4 4 Sur 6 Sur 0 -- -- 99
2020-06-30 03:00:00 14.4 0 Calma 3 Sudeste 0 -- -- 97
2020-06-30 02:00:00 14.8 2 Noroeste 4 Noroeste 0 -- -- 95
2020-06-30 01:00:00 15.4 2 Noroeste 4 Noroeste 0 -- -- 95
2020-06-30 00:00:00 16.3 0 Calma 5 Oeste 0 -- -- 90
2020-06-29 23:00:00 17.9 4 Oeste 8 Nordeste 0 -- -- 85
2020-06-29 22:00:00 19.1 6 Nordeste 12 Nordeste 0 -- -- 79
2020-06-29 21:00:00 19.3 8 Nordeste 15 Nordeste 0 -- -- 77
2020-06-29 20:00:00 19.5 9 Nordeste 16 Nordeste 0 -- -- 77
2020-06-29 19:00:00 20.1 8 Nordeste 16 Este 0 -- -- 73
2020-06-29 18:00:00 21 8 Nordeste 17 Nordeste 0 -- -- 71
2020-06-29 17:00:00 20.8 9 Norte 15 Nordeste 0 -- -- 71
2020-06-29 16:00:00 20.9 8 Nordeste 16 Nordeste 0 -- -- 72
2020-06-29 15:00:00 19.9 9 Nordeste 15 Nordeste 0 -- -- 74
2020-06-29 14:00:00 19 10 Nordeste 14 Nordeste 0 -- -- 78
2020-06-29 13:00:00 18.8 4 Norte 9 Norte 0 -- -- 84
2020-06-29 12:00:00 18 3 Nordeste 7 Nordeste 0 -- -- 90
2020-06-29 11:00:00 17.5 3 Este 11 Norte 0 -- -- 95
2020-06-29 10:00:00 16.8 4 Norte 9 Noroeste 0.2 -- -- 97
2020-06-29 09:00:00 16.6 4 Noroeste 9 Norte 0.6 -- -- 96
2020-06-29 08:00:00 17.2 4 Norte 8 Sudoeste 0 -- -- 92
2020-06-29 07:00:00 17.1 0 Calma 9 Sur 0 -- -- 94
2020-06-29 06:00:00 17.1 3 Sudoeste 8 Sudoeste 0 -- -- 95
2020-06-29 05:00:00 17 4 Noroeste 7 Noroeste 0 -- -- 96
2020-06-29 04:00:00 17.3 3 Oeste 13 Oeste 0 -- -- 94
2020-06-29 03:00:00 17.5 6 Oeste 14 Oeste 0 -- -- 94
2020-06-29 02:00:00 18.1 6 Oeste 18 Noroeste 0 -- -- 94
2020-06-29 01:00:00 18.6 11 Noroeste 22 Noroeste 0 -- -- 95
2020-06-29 00:00:00 19.1 3 Oeste 9 Oeste 0 -- -- 93
2020-06-28 23:00:00 19.4 3 Oeste 12 Oeste 0 -- -- 91
2020-06-28 22:00:00 20.1 5 Oeste 20 Oeste 0 -- -- 86
2020-06-28 21:00:00 21.4 8 Oeste 15 Oeste 0 -- -- 77
2020-06-28 20:00:00 21.8 8 Noroeste 19 Noroeste 0 -- -- 76
2020-06-28 19:00:00 22.8 9 Noroeste 24 Oeste 0 -- -- 72
2020-06-28 18:00:00 24 14 Noroeste 26 Norte 0 -- -- 66
2020-06-28 17:00:00 24.6 13 Norte 28 Norte 0 -- -- 70
2020-06-28 16:00:00 23.9 10 Nordeste 18 Norte 0 -- -- 75
2020-06-28 15:00:00 23.1 12 Nordeste 22 Nordeste 0 -- -- 78
2020-06-28 14:00:00 22.6 13 Nordeste 26 Nordeste 0 -- -- 79
2020-06-28 13:00:00 22.6 12 Nordeste 22 Nordeste 0 -- -- 75
2020-06-28 12:00:00 22.5 9 Nordeste 17 Nordeste 0 -- -- 74
2020-06-28 11:00:00 21.9 8 Norte 13 Noroeste 0 -- -- 75
2020-06-28 10:00:00 20.2 6 Sudeste 11 Sudeste 0 -- -- 84
2020-06-28 09:00:00 18.8 3 Sudeste 12 Sudeste 0 -- -- 92
2020-06-28 08:00:00 18.1 3 Sur 10 Sudeste 0 -- -- 96
2020-06-28 07:00:00 17.8 4 Sur 8 Sudeste 0 -- -- 96
2020-06-28 06:00:00 17.8 5 Sudeste 8 Sudeste 0 -- -- 96
2020-06-28 05:00:00 17.8 5 Sur 8 Sur 0 -- -- 96
2020-06-28 04:00:00 17.8 4 Sudeste 6 Oeste 0 -- -- 96
2020-06-28 03:00:00 17.6 2 Sur 6 Sudeste 0 -- -- 97
2020-06-28 02:00:00 17.9 4 Sur 6 Sur 0 -- -- 94
2020-06-28 01:00:00 18.8 5 Oeste 10 Oeste 0 -- -- 88
2020-06-28 00:00:00 19.3 4 Sudoeste 8 Oeste 0 -- -- 85
2020-06-27 23:00:00 19.6 2 Oeste 8 Noroeste 0 -- -- 85
2020-06-27 22:00:00 19.8 8 Noroeste 18 Norte 0 -- -- 84
2020-06-27 21:00:00 20.4 11 Noroeste 20 Noroeste 0 -- -- 85
2020-06-27 20:00:00 21.2 13 Noroeste 22 Noroeste 0 -- -- 83
2020-06-27 19:00:00 24 9 Norte 18 Norte 0 -- -- 71
2020-06-27 18:00:00 24.2 6 Nordeste 10 Norte 0 -- -- 69
2020-06-27 17:00:00 22.5 5 Norte 14 Nordeste 0 -- -- 77
2020-06-27 16:00:00 23.2 8 Nordeste 19 Nordeste 0 -- -- 73
2020-06-27 15:00:00 23.7 8 Norte 16 Nordeste 0 -- -- 65
2020-06-27 14:00:00 23.8 10 Nordeste 16 Nordeste 0 -- -- 70
2020-06-27 13:00:00 23.5 8 Nordeste 15 Nordeste 0 -- -- 67
2020-06-27 12:00:00 24 6 Nordeste 9 Nordeste 0 -- -- 62
2020-06-27 11:00:00 22.5 4 Sudeste 7 Sudeste 0 -- -- 72
2020-06-27 10:00:00 20.1 4 Sudeste 9 Sudeste 0 -- -- 78
2020-06-27 09:00:00 17.7 4 Sudeste 10 Sudeste 0 -- -- 87
2020-06-27 08:00:00 14.9 5 Sur 17 Sur 0 -- -- 96
2020-06-27 07:00:00 14.2 9 Sur 17 Sur 0 -- -- 97
2020-06-27 06:00:00 14.1 8 Sur 19 Sudeste 0 -- -- 97
2020-06-27 05:00:00 14.3 8 Sur 19 Sudeste 0 -- -- 97
2020-06-27 04:00:00 14.7 10 Sur 17 Sur 0 -- -- 97
2020-06-27 03:00:00 15.2 8 Sur 18 Sudeste 0 -- -- 96
2020-06-27 02:00:00 15.7 8 Sur 17 Sudeste 0 -- -- 97
2020-06-27 01:00:00 16 8 Sur 14 Sur 0 -- -- 98
2020-06-27 00:00:00 16.3 9 Sur 15 Sur 0 -- -- 98
2020-06-26 23:00:00 16.1 0 Calma 5 Sudeste 0 -- -- 95
2020-06-26 22:00:00 17.5 2 Sudoeste 11 Este 0 -- -- 91
2020-06-26 21:00:00 18.5 8 Nordeste 13 Nordeste 0 -- -- 89
2020-06-26 20:00:00 18.9 5 Nordeste 10 Norte 0 -- -- 88
2020-06-26 19:00:00 18.7 2 Este 7 Sur 0 -- -- 91
2020-06-26 18:00:00 17.9 0 Calma 8 Noroeste 0 -- -- 95
2020-06-26 17:00:00 17.7 4 Norte 9 Norte 0 -- -- 96
2020-06-26 16:00:00 17.9 4 Nordeste 8 Noroeste 0 -- -- 96
2020-06-26 15:00:00 17.4 5 Noroeste 13 Norte 0.2 -- -- 97
2020-06-26 14:00:00 17.9 6 Norte 13 Norte 0 -- -- 93
2020-06-26 13:00:00 18.6 3 Noroeste 6 Oeste 0 -- -- 86
2020-06-26 12:00:00 18.3 2 Nordeste 5 Nordeste 0 -- -- 89
2020-06-26 11:00:00 18 2 Este 7 Sudeste 0 -- -- 92
2020-06-26 10:00:00 17.6 3 Este 4 Este 0 -- -- 93
2020-06-26 09:00:00 17.3 4 Oeste 7 Oeste 0 -- -- 94
2020-06-26 08:00:00 17 3 Sudoeste 8 Sur 0 -- -- 96
2020-06-26 07:00:00 17 3 Sudoeste 8 Oeste 0 -- -- 95
2020-06-26 06:00:00 17 3 Sur 6 Oeste 0 -- -- 95
2020-06-26 05:00:00 17.1 3 Sudoeste 7 Sudoeste 0 -- -- 93
2020-06-26 04:00:00 17.3 4 Sudoeste 13 Sudoeste 0 -- -- 92
2020-06-26 03:00:00 17.3 5 Sudoeste 12 Sudoeste 0 -- -- 92
2020-06-26 02:00:00 17.3 6 Sudoeste 14 Sur 0 -- -- 94
2020-06-26 01:00:00 17.6 4 Oeste 17 Oeste 0 -- -- 92
2020-06-26 00:00:00 17.9 9 Oeste 16 Oeste 0 -- -- 90
2020-06-25 23:00:00 17.9 3 Oeste 9 Oeste 0 -- -- 93
2020-06-25 22:00:00 18.3 0 Calma 10 Sur 0 -- -- 91
2020-06-25 21:00:00 18.3 4 Noroeste 17 Oeste 0 -- -- 90
2020-06-25 20:00:00 18.4 2 Oeste 19 Oeste 0 -- -- 91
2020-06-25 19:00:00 18.7 12 Oeste 23 Oeste 0 -- -- 89
2020-06-25 18:00:00 18.6 8 Oeste 19 Noroeste 0.2 -- -- 91
2020-06-25 17:00:00 18.6 7 Noroeste 22 Noroeste 0 -- -- 93
2020-06-25 16:00:00 19 8 Norte 18 Oeste 0.4 -- -- 93
2020-06-25 15:00:00 19.6 5 Oeste 22 Oeste 0.2 -- -- 90
2020-06-25 14:00:00 19.5 5 Oeste 23 Oeste 0 -- -- 88
2020-06-25 13:00:00 20.6 16 Oeste 25 Oeste 0 -- -- 80
2020-06-25 12:00:00 20.6 14 Noroeste 23 Norte 0 -- -- 83
2020-06-25 11:00:00 20.5 3 Sudeste 10 Nordeste 0 -- -- 85
2020-06-25 10:00:00 19.4 6 Oeste 26 Oeste 0 -- -- 85
2020-06-25 09:00:00 19 8 Oeste 20 Noroeste 0 -- -- 87
2020-06-25 08:00:00 18.7 7 Noroeste 14 Oeste 0 -- -- 87
2020-06-25 07:00:00 18.9 4 Sur 20 Oeste 0 -- -- 84
2020-06-25 06:00:00 19.1 6 Sudoeste 22 Oeste 0 -- -- 88
2020-06-25 05:00:00 19.6 8 Noroeste 15 Noroeste 0 -- -- 86
2020-06-25 04:00:00 19.9 8 Oeste 18 Oeste 0 -- -- 88
2020-06-25 03:00:00 19.8 9 Sudeste 20 Sudeste 0 -- -- 91
2020-06-25 02:00:00 19.4 7 Sur 15 Sur 0 -- -- 90
2020-06-25 01:00:00 19.7 2 Sur 9 Sur 0 -- -- 89
2020-06-25 00:00:00 20.2 5 Nordeste 13 Nordeste 0 -- -- 87
2020-06-24 23:00:00 20.7 5 Sur 12 Sudeste 0 -- -- 86
2020-06-24 22:00:00 21 4 Sudeste 19 Sudoeste 0 -- -- 82
2020-06-24 21:00:00 21 4 Noroeste 27 Oeste 0 -- -- 80
2020-06-24 20:00:00 20.6 14 Oeste 32 Oeste 0 -- -- 84
2020-06-24 19:00:00 21.6 14 Noroeste 25 Noroeste 0 -- -- 81
2020-06-24 18:00:00 23.8 14 Noroeste 24 Norte 0 -- -- 77
2020-06-24 17:00:00 24.9 10 Norte 23 Nordeste 0 -- -- 74
2020-06-24 16:00:00 23.7 11 Norte 19 Norte 0 -- -- 79
2020-06-24 15:00:00 24.7 10 Nordeste 24 Nordeste 0 -- -- 77
2020-06-24 14:00:00 25.7 9 Noroeste 16 Noroeste 0 -- -- 75
2020-06-24 13:00:00 24.3 7 Noroeste 19 Noroeste 0 -- -- 79
2020-06-24 12:00:00 22.9 13 Noroeste 21 Noroeste 0 -- -- 83
2020-06-24 11:00:00 21.5 15 Noroeste 22 Noroeste 0 -- -- 86
2020-06-24 10:00:00 22 7 Noroeste 13 Noroeste 0 -- -- 87
2020-06-24 09:00:00 21 4 Nordeste 6 Sudeste 0 -- -- 92
2020-06-24 08:00:00 18.6 3 Noroeste 5 Noroeste 0 -- -- 99
2020-06-24 07:00:00 17.5 0 Calma 9 Noroeste 0 -- -- 99
2020-06-24 06:00:00 17.9 6 Noroeste 9 Sur 0 -- -- 98
2020-06-24 05:00:00 17.5 4 Sur 10 Sur 0 -- -- 98
2020-06-24 04:00:00 17 3 Sudoeste 8 Sur 0 -- -- 99
2020-06-24 03:00:00 16.7 2 Sudeste 5 Noroeste 0 -- -- 98
2020-06-24 02:00:00 16.9 0 Calma 4 Sudeste 0 -- -- 97
2020-06-24 01:00:00 17.3 0 Calma 8 Sur 0 -- -- 96
2020-06-24 00:00:00 17.9 0 Calma 4 Noroeste 0 -- -- 94
2020-06-23 23:00:00 19 2 Oeste 5 Noroeste 0 -- -- 91
2020-06-23 22:00:00 21.2 4 Noroeste 7 Noroeste 0 -- -- 83
2020-06-23 21:00:00 22.9 4 Noroeste 17 Nordeste 0 -- -- 76
2020-06-23 20:00:00 22.9 13 Nordeste 23 Nordeste 0 -- -- 77
2020-06-23 19:00:00 23 13 Nordeste 28 Nordeste 0 -- -- 78
2020-06-23 18:00:00 22.8 22 Nordeste 33 Nordeste 0 -- -- 79
2020-06-23 17:00:00 22.8 22 Nordeste 34 Nordeste 0 -- -- 78
2020-06-23 16:00:00 22.9 17 Nordeste 33 Nordeste 0 -- -- 79
2020-06-23 15:00:00 22.4 19 Nordeste 31 Nordeste 0 -- -- 81
2020-06-23 14:00:00 22.2 17 Nordeste 29 Nordeste 0 -- -- 83
2020-06-23 13:00:00 22.7 13 Nordeste 27 Nordeste 0 -- -- 81
2020-06-23 12:00:00 21.9 14 Nordeste 28 Nordeste 0 -- -- 82
2020-06-23 11:00:00 21.4 12 Nordeste 22 Nordeste 0 -- -- 79
2020-06-23 10:00:00 20.3 2 Este 6 Nordeste 0 -- -- 81
2020-06-23 09:00:00 17.5 3 Sudeste 9 Sudeste 0 -- -- 91
2020-06-23 08:00:00 15.1 5 Sur 10 Sur 0 -- -- 97
2020-06-23 07:00:00 13.6 3 Sur 11 Sur 0 -- -- 98
2020-06-23 06:00:00 14.3 5 Sur 13 Sur 0 -- -- 98
2020-06-23 05:00:00 14.6 7 Sur 12 Sudeste 0 -- -- 98
2020-06-23 04:00:00 14.6 6 Sur 14 Sur 0 -- -- 99
2020-06-23 03:00:00 14.4 3 Sur 7 Sur 0 -- -- 98
2020-06-23 02:00:00 15.2 3 Sur 8 Sur 0 -- -- 97
2020-06-23 01:00:00 15.6 4 Sudeste 6 Sudeste 0 -- -- 96
2020-06-23 00:00:00 16.9 0 Calma 6 Nordeste 0 -- -- 94
2020-06-22 23:00:00 18.8 4 Nordeste 19 Nordeste 0 -- -- 88
2020-06-22 22:00:00 19.4 12 Nordeste 24 Nordeste 0 -- -- 89
2020-06-22 21:00:00 20.4 13 Nordeste 26 Nordeste 0 -- -- 83
2020-06-22 20:00:00 20.7 17 Nordeste 35 Nordeste 0 -- -- 83
2020-06-22 19:00:00 20.8 24 Nordeste 38 Nordeste 0 -- -- 83
2020-06-22 18:00:00 20.8 27 Nordeste 39 Nordeste 0 -- -- 83
2020-06-22 17:00:00 20.9 29 Nordeste 42 Nordeste 0 -- -- 84
2020-06-22 16:00:00 21.3 25 Nordeste 39 Nordeste 0 -- -- 81
2020-06-22 15:00:00 21.8 21 Nordeste 33 Norte 0 -- -- 81
2020-06-22 14:00:00 21.4 20 Nordeste 36 Nordeste -- -- -- 83
2020-06-22 13:00:00 20.9 23 Nordeste 35 Nordeste 0 -- -- 84
2020-06-22 12:00:00 21.1 18 Nordeste 29 Nordeste 0 -- -- 84
2020-06-22 11:00:00 21.1 12 Nordeste 23 Nordeste 0 -- -- 83
2020-06-22 10:00:00 20.3 9 Nordeste 14 Nordeste 0 -- -- 86
2020-06-22 09:00:00 17.6 6 Sudeste 13 Sudeste 0 -- -- 89
2020-06-22 08:00:00 16.1 5 Sur 14 Sudeste 0 -- -- 95
2020-06-22 07:00:00 15.8 7 Sur 13 Sur 0 -- -- 96
2020-06-22 06:00:00 16.2 4 Sur 9 Sudeste 0 -- -- 96
2020-06-22 05:00:00 17.2 4 Sudeste 8 Sudeste 0 -- -- 95
2020-06-22 04:00:00 17.1 0 Calma 4 Oeste 0 -- -- 93
2020-06-22 03:00:00 18.4 2 Noroeste 5 Noroeste 0 -- -- 89
2020-06-22 02:00:00 19 4 Noroeste 6 Noroeste 0 -- -- 85
2020-06-22 01:00:00 19.4 3 Sur 6 Sur 0 -- -- 84
2020-06-22 00:00:00 19.7 0 Calma 4 Oeste 0 -- -- 82
2020-06-21 23:00:00 20.3 3 Noroeste 6 Norte 0 -- -- 77
2020-06-21 22:00:00 20.8 3 Noroeste 5 Nordeste 0 -- -- 73
2020-06-21 21:00:00 21.2 4 Norte 9 Norte 0 -- -- 67
2020-06-21 20:00:00 21.7 5 Nordeste 13 Nordeste 0 -- -- 67
2020-06-21 19:00:00 22.5 8 Nordeste 15 Nordeste 0 -- -- 64
2020-06-21 18:00:00 22.9 9 Nordeste 14 Nordeste 0 -- -- 64
2020-06-21 17:00:00 22.2 6 Norte 18 Nordeste 0 -- -- 68
2020-06-21 16:00:00 22.5 10 Nordeste 21 Nordeste 0 -- -- 69
2020-06-21 15:00:00 23 9 Norte 21 Norte 0 -- -- 66
2020-06-21 14:00:00 22.9 11 Nordeste 22 Nordeste 0 -- -- 66
2020-06-21 13:00:00 23.2 12 Noroeste 23 Noroeste 0 -- -- 59
2020-06-21 12:00:00 21.9 8 Nordeste 15 Nordeste 0 -- -- 77
2020-06-21 11:00:00 20.9 7 Nordeste 9 Nordeste 0 -- -- 77
2020-06-21 10:00:00 19.3 3 Sudeste 9 Sudeste 0 -- -- 80
2020-06-21 09:00:00 16.4 6 Sudeste 10 Sudeste 0 -- -- 88
2020-06-21 08:00:00 14 5 Sudeste 10 Sudeste 0 -- -- 97
2020-06-21 07:00:00 12.6 3 Sur 10 Sur 0 -- -- 98
2020-06-21 06:00:00 12.6 3 Sur 8 Sur 0 -- -- 97
2020-06-21 05:00:00 13 4 Sur 10 Sur 0 -- -- 97
2020-06-21 04:00:00 13.2 5 Sur 9 Sur 0 -- -- 95
2020-06-21 03:00:00 13.9 2 Oeste 8 Sudoeste 0 -- -- 95
2020-06-21 02:00:00 14.1 6 Sur 10 Sur 0 -- -- 96
2020-06-21 01:00:00 14.4 5 Sur 8 Sur 0 -- -- 94
2020-06-21 00:00:00 15.3 3 Sudeste 8 Sur 0 -- -- 92
2020-06-20 23:00:00 16.7 2 Noroeste 6 Oeste 0 -- -- 88
2020-06-20 22:00:00 18.5 4 Norte 10 Nordeste 0 -- -- 82
2020-06-20 21:00:00 19.8 9 Nordeste 15 Norte 0 -- -- 76
2020-06-20 20:00:00 20.4 10 Nordeste 19 Nordeste 0 -- -- 75
2020-06-20 19:00:00 20.9 12 Nordeste 21 Nordeste 0 -- -- 76
2020-06-20 18:00:00 21.6 9 Norte 19 Nordeste 0 -- -- 71
2020-06-20 17:00:00 21 13 Nordeste 25 Nordeste 0 -- -- 75
2020-06-20 16:00:00 20.8 16 Nordeste 28 Nordeste 0 -- -- 70
2020-06-20 15:00:00 20.3 15 Nordeste 28 Nordeste 0 -- -- 78
2020-06-20 14:00:00 20.1 18 Nordeste 31 Nordeste 0 -- -- 73
2020-06-20 13:00:00 20.1 17 Nordeste 26 Nordeste 0 -- -- 75
2020-06-20 12:00:00 20.4 10 Nordeste 18 Nordeste 0 -- -- 71
2020-06-20 11:00:00 19.8 8 Nordeste 11 Nordeste 0 -- -- 70
2020-06-20 10:00:00 17.6 6 Sudeste 12 Sudeste 0 -- -- 81
2020-06-20 09:00:00 15.1 8 Sudeste 13 Sudeste 0 -- -- 89
2020-06-20 08:00:00 12.9 5 Sudeste 12 Sudeste 0 -- -- 96
2020-06-20 07:00:00 11.7 4 Sur 15 Sudeste 0 -- -- 97
2020-06-20 06:00:00 11.9 4 Sur 11 Sudeste 0 -- -- 98
2020-06-20 05:00:00 12.2 6 Sur 13 Sur 0 -- -- 97
2020-06-20 04:00:00 12.4 5 Sur 10 Sur 0 -- -- 97
2020-06-20 03:00:00 12.4 4 Sur 11 Sudeste 0 -- -- 96
2020-06-20 02:00:00 13 3 Sur 12 Sudeste 0 -- -- 95
2020-06-20 01:00:00 13.8 5 Sudeste 10 Sudeste 0 -- -- 94
2020-06-20 00:00:00 14.7 5 Sudeste 10 Sudeste 0 -- -- 92
2020-06-19 23:00:00 15.4 0 Calma 4 Oeste 0 -- -- 88
2020-06-19 22:00:00 17.4 0 Calma 9 Nordeste 0 -- -- 78
2020-06-19 21:00:00 18.5 5 Nordeste 11 Nordeste 0 -- -- 71
2020-06-19 20:00:00 19.3 6 Nordeste 12 Nordeste 0 -- -- 68
2020-06-19 19:00:00 18.8 6 Nordeste 13 Norte 0 -- -- 71
2020-06-19 18:00:00 19 8 Nordeste 19 Nordeste 0 -- -- 73
2020-06-19 17:00:00 19 12 Nordeste 23 Nordeste 0 -- -- 74
2020-06-19 16:00:00 19.6 13 Nordeste 20 Nordeste 0 -- -- 74
2020-06-19 15:00:00 20.2 9 Nordeste 19 Nordeste 0 -- -- 74
2020-06-19 14:00:00 19.2 13 Nordeste 21 Este 0 -- -- 73
2020-06-19 13:00:00 20.1 10 Nordeste 16 Nordeste 0 -- -- 68
2020-06-19 12:00:00 19.3 6 Norte 14 Nordeste 0 -- -- 72
2020-06-19 11:00:00 18.9 5 Nordeste 12 Nordeste 0 -- -- 73
2020-06-19 10:00:00 16.9 2 Noroeste 7 Sudeste 0 -- -- 81
2020-06-19 09:00:00 14.5 3 Sur 9 Sudeste 0 -- -- 95
2020-06-19 08:00:00 13.2 3 Sur 11 Sur 0 -- -- 98
2020-06-19 07:00:00 12.5 5 Sur 8 Sur 0 -- -- 98
2020-06-19 06:00:00 13 3 Sur 12 Sudeste 0 -- -- 96
2020-06-19 05:00:00 13.3 5 Sudeste 9 Sudeste 0 -- -- 97
2020-06-19 04:00:00 13.3 4 Sur 8 Sur 0 -- -- 97
2020-06-19 03:00:00 13.4 4 Sudeste 9 Sudeste 0 -- -- 97
2020-06-19 02:00:00 13.4 5 Sur 8 Sur 0 -- -- 95
2020-06-19 01:00:00 14.1 2 Sur 12 Sudeste 0 -- -- 91
2020-06-19 00:00:00 15.1 4 Sudeste 9 Sudeste 0 -- -- 91
2020-06-18 23:00:00 15.7 2 Oeste 5 Sudeste 0 -- -- 88
2020-06-18 22:00:00 16.3 0 Calma 9 Nordeste 0 -- -- 82
2020-06-18 21:00:00 17.1 6 Nordeste 12 Nordeste 0 -- -- 77
2020-06-18 20:00:00 17.5 6 Nordeste 15 Nordeste 0 -- -- 76
2020-06-18 19:00:00 18.2 8 Nordeste 17 Nordeste 0 -- -- 74
2020-06-18 18:00:00 19.3 8 Norte 19 Norte 0 -- -- 71
2020-06-18 17:00:00 19.7 10 Norte 21 Nordeste 0 -- -- 64
2020-06-18 16:00:00 18.6 11 Nordeste 22 Nordeste 0 -- -- 72
2020-06-18 15:00:00 18.2 11 Norte 20 Norte 0 -- -- 77
2020-06-18 14:00:00 19 9 Nordeste 15 Nordeste 0 -- -- 72
2020-06-18 13:00:00 18.7 7 Noroeste 17 Noroeste 0 -- -- 73
2020-06-18 12:00:00 18.5 8 Oeste 17 Noroeste 0 -- -- 70
2020-06-18 11:00:00 18.2 10 Noroeste 16 Noroeste 0 -- -- 70
2020-06-18 10:00:00 16.6 5 Sudeste 10 Sudeste 0 -- -- 89
2020-06-18 09:00:00 14.7 5 Sur 12 Sudeste 0 -- -- 97
2020-06-18 08:00:00 13.9 7 Sur 11 Sudeste 0 -- -- 98
2020-06-18 07:00:00 13.6 6 Sur 11 Sur 0 -- -- 98
2020-06-18 06:00:00 13.5 4 Sudeste 11 Sur 0 -- -- 98
2020-06-18 05:00:00 13.7 4 Sudeste 6 Sudeste 0.2 -- -- 97
2020-06-18 04:00:00 13.9 3 Sur 8 Sudeste 0.6 -- -- 96
2020-06-18 03:00:00 14.2 3 Sur 9 Sur 2.6 -- -- 93
2020-06-18 02:00:00 15.1 5 Sur 10 Sudoeste 0 -- -- 89
2020-06-18 01:00:00 15 2 Sudoeste 4 Sudoeste 0 -- -- 90
2020-06-18 00:00:00 15.2 0 Calma 6 Sur 0 -- -- 89
2020-06-17 23:00:00 15.8 3 Oeste 6 Oeste 0 -- -- 82
2020-06-17 22:00:00 16.5 2 Oeste 10 Noroeste 0 -- -- 78
2020-06-17 21:00:00 17.6 8 Oeste 14 Oeste 0 -- -- 72
2020-06-17 20:00:00 17.8 7 Noroeste 17 Noroeste 0 -- -- 74
2020-06-17 19:00:00 18 10 Noroeste 20 Noroeste 0 -- -- 71
2020-06-17 18:00:00 18.4 14 Noroeste 25 Noroeste 0 -- -- 69
2020-06-17 17:00:00 19.6 13 Noroeste 28 Noroeste 0 -- -- 63
2020-06-17 16:00:00 20 14 Noroeste 28 Noroeste 0 -- -- 64
2020-06-17 15:00:00 19.4 15 Oeste 32 Noroeste 0 -- -- 70
2020-06-17 14:00:00 18.6 13 Noroeste 32 Oeste 0 -- -- 72
2020-06-17 13:00:00 18.4 17 Noroeste 30 Noroeste 0 -- -- 73
2020-06-17 12:00:00 18.1 14 Noroeste 27 Oeste 0 -- -- 71
2020-06-17 11:00:00 17.5 12 Oeste 25 Noroeste 0 -- -- 77
2020-06-17 10:00:00 17.2 15 Oeste 27 Oeste 0 -- -- 74
2020-06-17 09:00:00 15.5 5 Sudoeste 14 Sur 0 -- -- 85
2020-06-17 08:00:00 14.9 5 Sudoeste 13 Sudoeste 0 -- -- 87
2020-06-17 07:00:00 14.5 3 Sudoeste 12 Sudoeste 0.2 -- -- 86
2020-06-17 06:00:00 14.4 4 Sudoeste 13 Sur 0 -- -- 88
2020-06-17 05:00:00 14.5 4 Sur 17 Sudoeste 0 -- -- 88
2020-06-17 04:00:00 14.6 5 Sudoeste 17 Sudoeste 0 -- -- 90
2020-06-17 03:00:00 14.6 3 Sudoeste 13 Oeste 0.8 -- -- 91
2020-06-17 02:00:00 14.9 6 Sudoeste 15 Oeste 0.4 -- -- 90
2020-06-17 01:00:00 15.2 4 Sudoeste 13 Oeste 0 -- -- 87
2020-06-17 00:00:00 15.6 8 Oeste 21 Oeste 0 -- -- 83
2020-06-16 23:00:00 15.9 8 Oeste 18 Oeste 0 -- -- 82
2020-06-16 22:00:00 16.1 5 Sudoeste 19 Oeste 0 -- -- 80
2020-06-16 21:00:00 16.5 5 Sudoeste 22 Sudoeste 0 -- -- 78
2020-06-16 20:00:00 17.2 9 Oeste 23 Oeste 0 -- -- 75
2020-06-16 19:00:00 17.8 8 Oeste 19 Oeste 0 -- -- 74
2020-06-16 18:00:00 17.8 10 Sudoeste 24 Sudoeste 0 -- -- 79
2020-06-16 17:00:00 16 5 Oeste 29 Oeste 0.2 -- -- 92
2020-06-16 16:00:00 16.7 9 Oeste 18 Oeste 0 -- -- 84
2020-06-16 15:00:00 16.6 7 Oeste 18 Noroeste 0 -- -- 83
2020-06-16 14:00:00 16.1 9 Noroeste 17 Noroeste 0 -- -- 86
2020-06-16 13:00:00 15.7 4 Norte 18 Noroeste 0.8 -- -- 92
2020-06-16 12:00:00 15.7 12 Noroeste 26 Noroeste 0.2 -- -- 91
2020-06-16 11:00:00 17.8 6 Noroeste 12 Oeste 0 -- -- 79
2020-06-16 10:00:00 17.7 3 Nordeste 9 Norte 0 -- -- 81
2020-06-16 09:00:00 15.9 2 Este 12 Sudeste 0 -- -- 92
2020-06-16 08:00:00 14.5 5 Sur 9 Sur 0 -- -- 97
2020-06-16 07:00:00 14.4 3 Sudeste 19 Sudeste 0 -- -- 96
2020-06-16 06:00:00 14.3 6 Sur 16 Sudeste 0 -- -- 98
2020-06-16 05:00:00 14.4 5 Sudeste 9 Sudeste 0 -- -- 98
2020-06-16 04:00:00 14.4 6 Sudeste 15 Sudeste 0 -- -- 97
2020-06-16 03:00:00 14.5 4 Sur 14 Sur 0 -- -- 97
2020-06-16 02:00:00 14.6 6 Sur 13 Sudeste 0 -- -- 97
2020-06-16 01:00:00 14.6 6 Sudeste 14 Sudeste 0 -- -- 97
2020-06-16 00:00:00 14.6 6 Sudeste 13 Sudeste 0 -- -- 96
2020-06-15 23:00:00 14.7 7 Sur 13 Sudeste 0.2 -- -- 95
2020-06-15 22:00:00 14.7 10 Sudeste 18 Sudeste 0.8 -- -- 95
2020-06-15 21:00:00 14.9 8 Sudeste 13 Sudeste 1.4 -- -- 94
2020-06-15 20:00:00 16 7 Sudoeste 13 Sudoeste 0.4 -- -- 83
2020-06-15 19:00:00 17.5 8 Oeste 18 Noroeste 0 -- -- 71
2020-06-15 18:00:00 19.1 12 Noroeste 20 Norte 0 -- -- 61
2020-06-15 17:00:00 20.3 10 Norte 22 Norte 0 -- -- 59
2020-06-15 16:00:00 21.1 10 Norte 22 Norte 0 -- -- 56
2020-06-15 15:00:00 20.9 10 Nordeste 20 Norte 0 -- -- 58
2020-06-15 14:00:00 20 9 Norte 20 Nordeste 0 -- -- 59
2020-06-15 13:00:00 21.1 8 Norte 17 Norte 0 -- -- 59
2020-06-15 12:00:00 19.3 10 Sudeste 16 Sudeste 0 -- -- 72
2020-06-15 11:00:00 17.2 6 Sudeste 20 Sudeste 0 -- -- 87
2020-06-15 10:00:00 15.6 10 Sudeste 15 Sur 0 -- -- 95
2020-06-15 09:00:00 14.9 7 Sur 13 Sur 0.2 -- -- 96
2020-06-15 08:00:00 15.1 5 Sur 10 Sur 0.6 -- -- 94
2020-06-15 07:00:00 15.5 5 Noroeste 15 Sudeste 0 -- -- 89
2020-06-15 06:00:00 15.4 5 Sudeste 10 Sudeste 0 -- -- 90
2020-06-15 05:00:00 15.5 5 Sudeste 12 Sudeste 0 -- -- 89
2020-06-15 04:00:00 15.8 8 Sudeste 13 Sudeste 0 -- -- 87
2020-06-15 03:00:00 15.9 4 Sudeste 8 Sudeste 0 -- -- 86
2020-06-15 02:00:00 16.1 4 Sur 8 Sudeste 0 -- -- 85
2020-06-15 01:00:00 16.4 4 Sur 9 Sudoeste 0 -- -- 82
2020-06-15 00:00:00 16.7 4 Sudoeste 9 Sur 0 -- -- 80
2020-06-14 23:00:00 16.9 2 Sudoeste 6 Noroeste 0 -- -- 79
2020-06-14 22:00:00 17.3 3 Noroeste 13 Noroeste 0 -- -- 76
2020-06-14 21:00:00 18 7 Noroeste 18 Noroeste 0 -- -- 69
2020-06-14 20:00:00 18.6 10 Noroeste 20 Noroeste 0 -- -- 63
2020-06-14 19:00:00 20 10 Noroeste 19 Noroeste 0 -- -- 56
2020-06-14 18:00:00 20.9 7 Noroeste 18 Nordeste 0 -- -- 53
2020-06-14 17:00:00 20.6 8 Nordeste 19 Norte 0 -- -- 53
2020-06-14 16:00:00 20.2 10 Norte 22 Nordeste 0 -- -- 57
2020-06-14 15:00:00 21.2 8 Norte 21 Noroeste 0 -- -- 53
2020-06-14 14:00:00 21.2 9 Noroeste 22 Norte 0 -- -- 49
2020-06-14 13:00:00 20.6 5 Nordeste 11 Norte 0 -- -- 69
2020-06-14 12:00:00 20.3 5 Este 10 Sudeste 0 -- -- 66
2020-06-14 11:00:00 18.2 4 Sudeste 12 Sudeste 0 -- -- 78
2020-06-14 10:00:00 16.2 5 Sudeste 13 Sudeste 0 -- -- 87
2020-06-14 09:00:00 14.7 8 Sudeste 16 Sudeste 0 -- -- 91
2020-06-14 08:00:00 13.4 10 Sudeste 20 Sudeste 0 -- -- 96
2020-06-14 07:00:00 12.8 8 Sur 16 Sudeste 0 -- -- 97
2020-06-14 06:00:00 13.4 7 Sudeste 15 Sudeste 0 -- -- 96
2020-06-14 05:00:00 13.6 8 Sudeste 16 Sudeste 0 -- -- 97
2020-06-14 04:00:00 14 7 Sur 11 Sur 0 -- -- 97
2020-06-14 03:00:00 14.5 3 Sudeste 9 Sur 0 -- -- 97
2020-06-14 02:00:00 14.7 5 Sur 9 Sur 0 -- -- 96
2020-06-14 01:00:00 14.9 3 Sur 9 Sudeste 0 -- -- 95
2020-06-14 00:00:00 15.1 3 Sudeste 10 Sudeste 0 -- -- 94
2020-06-13 23:00:00 15.8 0 Calma 9 Sudeste 0 -- -- 91
2020-06-13 22:00:00 16.2 6 Sur 9 Sudeste 0 -- -- 89
2020-06-13 21:00:00 16.5 5 Sudeste 11 Sudeste 0 -- -- 85
2020-06-13 20:00:00 16.9 5 Sur 13 Sur 0 -- -- 83
2020-06-13 19:00:00 17.4 6 Sudoeste 13 Noroeste 0.2 -- -- 74
2020-06-13 18:00:00 18 8 Noroeste 21 Oeste 0 -- -- 67
2020-06-13 17:00:00 19.3 7 Nordeste 13 Nordeste 0.4 -- -- 69
2020-06-13 16:00:00 19.1 7 Noroeste 22 Nordeste 0 -- -- 65
2020-06-13 15:00:00 20.2 8 Norte 19 Nordeste 0 -- -- 63
2020-06-13 14:00:00 20.5 10 Nordeste 17 Nordeste 0 -- -- 61
2020-06-13 13:00:00 19.3 5 Norte 12 Norte 0 -- -- 65
2020-06-13 12:00:00 16.5 5 Sur 13 Sudeste 0 -- -- 81
2020-06-13 11:00:00 15.1 5 Sudeste 15 Sudeste 0 -- -- 91
2020-06-13 10:00:00 14 6 Sur 15 Sudeste 0 -- -- 90
2020-06-13 09:00:00 13.4 7 Sudeste 15 Sudeste 0 -- -- 92
2020-06-13 08:00:00 12.9 8 Sur 15 Sudeste 0 -- -- 93
2020-06-13 07:00:00 12.4 6 Sudeste 17 Sudeste 0 -- -- 94
2020-06-13 06:00:00 12.2 7 Sur 17 Sudeste 0 -- -- 94
2020-06-13 05:00:00 12 8 Sur 17 Sudeste 0 -- -- 93
2020-06-13 04:00:00 12 6 Sur 19 Sudeste 0 -- -- 94
2020-06-13 03:00:00 12.1 13 Sudeste 24 Sudeste 0.2 -- -- 94
2020-06-13 02:00:00 11.9 5 Sur 22 Sur 0 -- -- 95
2020-06-13 01:00:00 12 6 Sur 13 Sur 0 -- -- 95
2020-06-13 00:00:00 11.9 6 Sudeste 13 Sur 0 -- -- 95
2020-06-12 23:00:00 12.7 3 Sudeste 9 Sudeste 0 -- -- 90
2020-06-12 22:00:00 14.3 5 Sudeste 9 Sudeste 0 -- -- 85
2020-06-12 21:00:00 16.6 3 Sudoeste 9 Sudoeste 0 -- -- 71
2020-06-12 20:00:00 17.9 3 Oeste 18 Sudoeste 0 -- -- 61
2020-06-12 19:00:00 16.9 6 Sudoeste 18 Oeste 0 -- -- 66
2020-06-12 18:00:00 14 7 Sudoeste 22 Sudoeste 0 -- -- 78
2020-06-12 17:00:00 13.7 10 Sudoeste 37 Oeste 2.2 -- -- 87
2020-06-12 16:00:00 17.4 19 Oeste 41 Oeste 0 -- -- 65
2020-06-12 15:00:00 19.3 14 Oeste 35 Noroeste 0 -- -- 62
2020-06-12 14:00:00 18.6 20 Noroeste 35 Sudoeste 0 -- -- 56
2020-06-12 13:00:00 18.3 17 Oeste 42 Oeste 0 -- -- 59
2020-06-12 12:00:00 16.2 19 Oeste 41 Sudoeste 0.2 -- -- 63
2020-06-12 11:00:00 17.8 15 Oeste 32 Oeste 0 -- -- 58
2020-06-12 10:00:00 17.1 11 Oeste 25 Oeste 0 -- -- 59
2020-06-12 09:00:00 15.3 9 Oeste 23 Oeste 0 -- -- 67
2020-06-12 08:00:00 13.7 10 Sudoeste 21 Sudoeste 0 -- -- 74
2020-06-12 07:00:00 13.7 11 Oeste 23 Oeste 0 -- -- 73
2020-06-12 06:00:00 10.6 4 Sur 11 Oeste 0 -- -- 96
2020-06-12 05:00:00 9.1 3 Noroeste 10 Noroeste 0 -- -- 96
2020-06-12 04:00:00 10.2 3 Noroeste 9 Oeste 0 -- -- 94
2020-06-12 03:00:00 11.1 6 Noroeste 19 Sur 0 -- -- 88
2020-06-12 02:00:00 11.6 5 Sudeste 17 Este 0 -- -- 87
2020-06-12 01:00:00 11.1 6 Este 24 Sur 0 -- -- 90
2020-06-12 00:00:00 11.2 9 Sudeste 19 Sudeste 0 -- -- 93
2020-06-11 23:00:00 11.2 9 Sur 23 Sudeste 0 -- -- 96
2020-06-11 22:00:00 11.5 8 Sur 12 Sur 3.4 -- -- 95
2020-06-11 21:00:00 12 3 Oeste 23 Oeste 1 -- -- 92
2020-06-11 20:00:00 12.8 7 Sudoeste 24 Oeste 1.6 -- -- 93
2020-06-11 19:00:00 13.4 5 Sudoeste 19 Sudoeste 1.2 -- -- 89
2020-06-11 18:00:00 14.6 7 Sudoeste 26 Oeste 0.2 -- -- 82
2020-06-11 17:00:00 14.3 7 Oeste 17 Sudoeste 0.2 -- -- 87
2020-06-11 16:00:00 13.3 9 Sur 23 Sudoeste 2.2 -- -- 92
2020-06-11 15:00:00 13.3 11 Sudoeste 25 Sudoeste 0.4 -- -- 88
2020-06-11 14:00:00 13.4 12 Oeste 36 Noroeste 1.6 -- -- 91
2020-06-11 13:00:00 15.2 16 Oeste 34 Sudoeste 0.4 -- -- 88
2020-06-11 12:00:00 15.9 15 Oeste 46 Noroeste 0.8 -- -- 89
2020-06-11 11:00:00 17 6 Sur 16 Sur 0 -- -- 85
2020-06-11 10:00:00 15.1 6 Sudeste 12 Sur 0.4 -- -- 93
2020-06-11 09:00:00 14.6 2 Sudeste 13 Sudeste 0 -- -- 95
2020-06-11 08:00:00 14 6 Sudeste 11 Sudeste 0 -- -- 97
2020-06-11 07:00:00 13.6 6 Sur 16 Sudeste 0 -- -- 98
2020-06-11 06:00:00 13.5 4 Sur 10 Sudeste 0 -- -- 98
2020-06-11 05:00:00 13.5 4 Sur 9 Sur 0 -- -- 98
2020-06-11 04:00:00 13.8 5 Sudeste 10 Sudeste 0 -- -- 98
2020-06-11 03:00:00 14.1 3 Sudeste 10 Sur 0 -- -- 97
2020-06-11 02:00:00 14.2 5 Sur 11 Sur 0 -- -- 97
2020-06-11 01:00:00 14.5 5 Sur 8 Sur 0 -- -- 96
2020-06-11 00:00:00 14.8 4 Sudeste 9 Sudeste 0 -- -- 95
2020-06-10 23:00:00 15 4 Sur 6 Sur 0 -- -- 94
2020-06-10 22:00:00 15.4 2 Sudoeste 6 Oeste 0.2 -- -- 90
2020-06-10 21:00:00 16.4 4 Oeste 11 Noroeste 0.2 -- -- 79
2020-06-10 20:00:00 17.1 5 Noroeste 12 Norte 0 -- -- 74
2020-06-10 19:00:00 17.6 5 Norte 14 Norte 0 -- -- 72
2020-06-10 18:00:00 17.8 6 Norte 14 Norte 0 -- -- 72
2020-06-10 17:00:00 17.9 8 Nordeste 14 Norte 0 -- -- 70
2020-06-10 16:00:00 18 6 Nordeste 13 Norte 0 -- -- 71
2020-06-10 15:00:00 17.6 8 Norte 15 Norte 0 -- -- 72
2020-06-10 14:00:00 18 8 Norte 15 Norte -- -- -- 72
2020-06-10 13:00:00 18.3 3 Nordeste 9 Este -- -- -- 72
2020-06-10 12:00:00 -- 5 Este 10 Nordeste 0 -- -- 65
2020-06-10 11:00:00 23.3 4 Sur 11 Sur 0 -- -- 64
2020-06-10 10:00:00 15.2 6 Sur 18 Sur 0 -- -- 83
2020-06-10 09:00:00 13.3 10 Sur 19 Sur 0 -- -- 87
2020-06-10 08:00:00 12.4 9 Sur 18 Sur 0 -- -- 89
2020-06-10 07:00:00 11.7 7 Sur 16 Sur 0 -- -- 90
2020-06-10 06:00:00 11.9 7 Sur 18 Sur 0 -- -- 90
2020-06-10 05:00:00 11.8 9 Sur 18 Sur 0 -- -- 91
2020-06-10 04:00:00 11.9 9 Sur 17 Sur 0 -- -- 92
2020-06-10 03:00:00 12 5 Sur 13 Sur 0 -- -- 93
2020-06-10 02:00:00 12 6 Sur 11 Sur 0 -- -- 93
2020-06-10 01:00:00 12.5 4 Sur 8 Sudeste 0 -- -- 91
2020-06-10 00:00:00 13.3 0 Calma 8 Oeste 0 -- -- 87